Terminal Aerodrome Forecast
Issued by NWS

Home | Current Version | Previous Version | Text Only | Print | Product List | Glossary On
Versions: 1 2 3 4 5 6 7 8 9 10 11 12 13 14
329
FTUS45 KTFX 210521
TAFLWT
TAF
KLWT 210521Z 2106/2206 24008KT P6SM SCT050 BKN140 PROB30 2200/2206
      4SM -RA OVC060=

USA.gov is the U.S. government's official web portal to all federal, state and local government web resources and services.